sensor_id;sensor_type;location;lat;lon;timestamp;pressure;altitude;pressure_sealevel;temperature;humidity
75013;BME280;63567;49.956;20.130;2024-03-23T00:55:32;96402.72;;;10.39;77.59
75013;BME280;63567;49.956;20.130;2024-03-23T00:57:57;96398.06;;;10.41;77.83
75013;BME280;63567;49.956;20.130;2024-03-23T01:00:22;96399.84;;;10.41;77.69
75013;BME280;63567;49.956;20.130;2024-03-23T01:02:48;96402.31;;;10.42;77.69
75013;BME280;63567;49.956;20.130;2024-03-23T01:05:13;96399.84;;;10.41;77.45
75013;BME280;63567;49.956;20.130;2024-03-23T01:07:38;96391.97;;;10.41;77.82
75013;BME280;63567;49.956;20.130;2024-03-23T01:10:04;96393.78;;;10.40;77.62
75013;BME280;63567;49.956;20.130;2024-03-23T01:12:29;96387.72;;;10.40;77.78
75013;BME280;63567;49.956;20.130;2024-03-23T01:14:54;96380.84;;;10.39;77.86
75013;BME280;63567;49.956;20.130;2024-03-23T01:17:19;96385.28;;;10.38;77.99
75013;BME280;63567;49.956;20.130;2024-03-23T01:19:45;96383.47;;;10.39;77.94
75013;BME280;63567;49.956;20.130;2024-03-23T01:22:10;96384.47;;;10.38;77.86
75013;BME280;63567;49.956;20.130;2024-03-23T01:24:36;96376.38;;;10.39;77.69
75013;BME280;63567;49.956;20.130;2024-03-23T01:27:01;96380.84;;;10.39;77.44
75013;BME280;63567;49.956;20.130;2024-03-23T01:29:26;96379.03;;;10.39;77.77
75013;BME280;63567;49.956;20.130;2024-03-23T01:31:52;96373.53;;;10.41;78.01
75013;BME280;63567;49.956;20.130;2024-03-23T01:34:17;96367.47;;;10.40;77.46
75013;BME280;63567;49.956;20.130;2024-03-23T01:36:42;96370.09;;;10.40;77.71
75013;BME280;63567;49.956;20.130;2024-03-23T01:39:07;96365.84;;;10.39;77.48
75013;BME280;63567;49.956;20.130;2024-03-23T01:41:34;96354.28;;;10.40;77.31
75013;BME280;63567;49.956;20.130;2024-03-23T01:44:05;96359.56;;;10.40;77.36
75013;BME280;63567;49.956;20.130;2024-03-23T01:46:30;96352.69;;;10.39;77.68
75013;BME280;63567;49.956;20.130;2024-03-23T01:48:55;96356.94;;;10.40;77.62
75013;BME280;63567;49.956;20.130;2024-03-23T01:51:21;96351.88;;;10.39;77.44
75013;BME280;63567;49.956;20.130;2024-03-23T01:53:46;96350.06;;;10.39;77.21
75013;BME280;63567;49.956;20.130;2024-03-23T01:56:11;96348.22;;;10.40;77.22
75013;BME280;63567;49.956;20.130;2024-03-23T01:58:38;96347.44;;;10.39;76.82
75013;BME280;63567;49.956;20.130;2024-03-23T02:01:03;96343.16;;;10.38;77.24
75013;BME280;63567;49.956;20.130;2024-03-23T02:03:29;96339.53;;;10.39;77.35
75013;BME280;63567;49.956;20.130;2024-03-23T02:05:55;96341.56;;;10.37;77.31
75013;BME280;63567;49.956;20.130;2024-03-23T02:08:22;96336.28;;;10.37;77.11
75013;BME280;63567;49.956;20.130;2024-03-23T02:10:48;96334.47;;;10.38;76.67
75013;BME280;63567;49.956;20.130;2024-03-23T02:13:14;96333.66;;;10.37;76.90
75013;BME280;63567;49.956;20.130;2024-03-23T02:15:40;96328.38;;;10.37;77.18
75013;BME280;63567;49.956;20.130;2024-03-23T02:18:07;96320.50;;;10.37;77.50
75013;BME280;63567;49.956;20.130;2024-03-23T02:20:33;96324.97;;;10.37;76.89
75013;BME280;63567;49.956;20.130;2024-03-23T02:22:58;96319.69;;;10.37;77.13
75013;BME280;63567;49.956;20.130;2024-03-23T02:25:23;96319.69;;;10.37;76.85
75013;BME280;63567;49.956;20.130;2024-03-23T02:27:48;96315.22;;;10.37;76.85
75013;BME280;63567;49.956;20.130;2024-03-23T02:30:14;96311.56;;;10.38;76.79
75013;BME280;63567;49.956;20.130;2024-03-23T02:32:39;96309.97;;;10.37;76.81
75013;BME280;63567;49.956;20.130;2024-03-23T02:35:05;96306.28;;;10.38;76.44
75013;BME280;63567;49.956;20.130;2024-03-23T02:37:30;96307.13;;;10.39;76.91
75013;BME280;63567;49.956;20.130;2024-03-23T02:39:55;96298.22;;;10.40;76.50
75013;BME280;63567;49.956;20.130;2024-03-23T02:42:21;96297.41;;;10.39;76.21
75013;BME280;63567;49.956;20.130;2024-03-23T02:44:46;96298.22;;;10.40;76.16
75013;BME280;63567;49.956;20.130;2024-03-23T02:47:11;96296.38;;;10.40;76.29
75013;BME280;63567;49.956;20.130;2024-03-23T02:49:37;96297.16;;;10.41;75.91
75013;BME280;63567;49.956;20.130;2024-03-23T02:52:02;96300.84;;;10.40;75.55
75013;BME280;63567;49.956;20.130;2024-03-23T02:54:28;96300.84;;;10.40;75.63
75013;BME280;63567;49.956;20.130;2024-03-23T02:56:53;96293.75;;;10.40;75.51
75013;BME280;63567;49.956;20.130;2024-03-23T02:59:18;96297.16;;;10.41;75.31
75013;BME280;63567;49.956;20.130;2024-03-23T03:01:43;96291.09;;;10.40;75.16
75013;BME280;63567;49.956;20.130;2024-03-23T03:04:09;96293.75;;;10.40;75.25
75013;BME280;63567;49.956;20.130;2024-03-23T03:06:34;96289.50;;;10.39;75.20
75013;BME280;63567;49.956;20.130;2024-03-23T03:08:59;96289.28;;;10.41;74.75
75013;BME280;63567;49.956;20.130;2024-03-23T03:11:24;96288.47;;;10.40;75.02
75013;BME280;63567;49.956;20.130;2024-03-23T03:13:50;96291.91;;;10.41;75.02
75013;BME280;63567;49.956;20.130;2024-03-23T03:16:15;96291.72;;;10.42;74.76
75013;BME280;63567;49.956;20.130;2024-03-23T03:18:40;96286.44;;;10.42;74.31
75013;BME280;63567;49.956;20.130;2024-03-23T03:21:06;96288.09;;;10.43;75.04
75013;BME280;63567;49.956;20.130;2024-03-23T03:23:36;96289.69;;;10.44;74.46
75013;BME280;63567;49.956;20.130;2024-03-23T03:26:02;96287.06;;;10.44;74.62
75013;BME280;63567;49.956;20.130;2024-03-23T03:28:27;96291.94;;;10.47;74.03
75013;BME280;63567;49.956;20.130;2024-03-23T03:30:55;96279.75;;;10.46;74.29
75013;BME280;63567;49.956;20.130;2024-03-23T03:33:20;96279.56;;;10.48;74.11
75013;BME280;63567;49.956;20.130;2024-03-23T03:35:46;96273.50;;;10.47;73.80
75013;BME280;63567;49.956;20.130;2024-03-23T03:38:11;96263.56;;;10.50;74.10
75013;BME280;63567;49.956;20.130;2024-03-23T03:40:37;96268.84;;;10.50;73.96
75013;BME280;63567;49.956;20.130;2024-03-23T03:43:03;96258.28;;;10.50;73.74
75013;BME280;63567;49.956;20.130;2024-03-23T03:45:28;96252.00;;;10.51;74.05
75013;BME280;63567;49.956;20.130;2024-03-23T03:47:53;96250.97;;;10.52;73.12
75013;BME280;63567;49.956;20.130;2024-03-23T03:50:19;96243.06;;;10.52;72.85
75013;BME280;63567;49.956;20.130;2024-03-23T03:52:45;96243.66;;;10.54;73.19
75013;BME280;63567;49.956;20.130;2024-03-23T03:55:13;96244.72;;;10.53;73.15
75013;BME280;63567;49.956;20.130;2024-03-23T03:57:39;96246.53;;;10.52;73.21
75013;BME280;63567;49.956;20.130;2024-03-23T04:00:05;96241.47;;;10.51;73.40
75013;BME280;63567;49.956;20.130;2024-03-23T04:02:31;96240.44;;;10.52;73.14
75013;BME280;63567;49.956;20.130;2024-03-23T04:04:56;96237.00;;;10.51;73.03
75013;BME280;63567;49.956;20.130;2024-03-23T04:07:22;96231.97;;;10.50;73.34
75013;BME280;63567;49.956;20.130;2024-03-23T04:09:48;96228.31;;;10.51;73.20
75013;BME280;63567;49.956;20.130;2024-03-23T04:12:13;96230.94;;;10.51;73.47
75013;BME280;63567;49.956;20.130;2024-03-23T04:14:38;96224.88;;;10.50;72.84
75013;BME280;63567;49.956;20.130;2024-03-23T04:17:04;96219.00;;;10.48;73.12
75013;BME280;63567;49.956;20.130;2024-03-23T04:19:29;96219.59;;;10.50;73.27
75013;BME280;63567;49.956;20.130;2024-03-23T04:21:54;96218.78;;;10.50;73.39
75013;BME280;63567;49.956;20.130;2024-03-23T04:24:20;96216.16;;;10.50;73.48
75013;BME280;63567;49.956;20.130;2024-03-23T04:26:47;96219.00;;;10.48;73.24
75013;BME280;63567;49.956;20.130;2024-03-23T04:29:12;96223.47;;;10.47;73.19
75013;BME280;63567;49.956;20.130;2024-03-23T04:31:38;96226.09;;;10.47;73.28
75013;BME280;63567;49.956;20.130;2024-03-23T04:34:03;96224.25;;;10.48;73.27
75013;BME280;63567;49.956;20.130;2024-03-23T04:36:29;96222.84;;;10.45;73.27
75013;BME280;63567;49.956;20.130;2024-03-23T04:38:54;96222.44;;;10.48;73.12
75013;BME280;63567;49.956;20.130;2024-03-23T04:41:19;96220.00;;;10.47;73.08
75013;BME280;63567;49.956;20.130;2024-03-23T04:43:45;96217.97;;;10.49;73.01
75013;BME280;63567;49.956;20.130;2024-03-23T04:46:10;96227.69;;;10.48;73.32
75013;BME280;63567;49.956;20.130;2024-03-23T04:48:35;96215.34;;;10.49;73.05
75013;BME280;63567;49.956;20.130;2024-03-23T04:51:01;96212.69;;;10.49;73.08
75013;BME280;63567;49.956;20.130;2024-03-23T04:53:26;96210.91;;;10.50;73.29
75013;BME280;63567;49.956;20.130;2024-03-23T04:55:57;96215.34;;;10.49;73.15
75013;BME280;63567;49.956;20.130;2024-03-23T04:58:24;96205.03;;;10.41;73.12
75013;BME280;63567;49.956;20.130;2024-03-23T05:00:56;96209.09;;;10.43;73.17
75013;BME280;63567;49.956;20.130;2024-03-23T05:03:22;96200.16;;;10.44;73.29
75013;BME280;63567;49.956;20.130;2024-03-23T05:05:50;96200.97;;;10.45;73.22
75013;BME280;63567;49.956;20.130;2024-03-23T05:08:16;96197.31;;;10.46;73.30
75013;BME280;63567;49.956;20.130;2024-03-23T05:10:42;96196.91;;;10.49;73.17
75013;BME280;63567;49.956;20.130;2024-03-23T05:13:08;96197.72;;;10.50;73.25
75013;BME280;63567;49.956;20.130;2024-03-23T05:15:33;96189.84;;;10.50;73.06
75013;BME280;63567;49.956;20.130;2024-03-23T05:17:59;96192.25;;;10.51;73.16
75013;BME280;63567;49.956;20.130;2024-03-23T05:20:24;96197.31;;;10.53;73.30
75013;BME280;63567;49.956;20.130;2024-03-23T05:22:50;96193.03;;;10.52;73.16
75013;BME280;63567;49.956;20.130;2024-03-23T05:25:16;96190.19;;;10.53;72.86
75013;BME280;63567;49.956;20.130;2024-03-23T05:27:41;96185.75;;;10.54;73.31
75013;BME280;63567;49.956;20.130;2024-03-23T05:30:07;96179.88;;;10.52;72.79
75013;BME280;63567;49.956;20.130;2024-03-23T05:32:32;96182.09;;;10.55;73.18
75013;BME280;63567;49.956;20.130;2024-03-23T05:34:57;96175.81;;;10.56;73.26
75013;BME280;63567;49.956;20.130;2024-03-23T05:37:23;96172.16;;;10.57;72.74
75013;BME280;63567;49.956;20.130;2024-03-23T05:39:48;96178.25;;;10.57;72.63
75013;BME280;63567;49.956;20.130;2024-03-23T05:42:16;96174.38;;;10.60;72.85
75013;BME280;63567;49.956;20.130;2024-03-23T05:44:46;96168.31;;;10.59;73.04
75013;BME280;63567;49.956;20.130;2024-03-23T05:47:12;96161.81;;;10.62;72.95
75013;BME280;63567;49.956;20.130;2024-03-23T05:49:42;96142.38;;;10.63;73.18
75013;BME280;63567;49.956;20.130;2024-03-23T05:52:08;96156.94;;;10.65;72.58
75013;BME280;63567;49.956;20.130;2024-03-23T05:54:33;96151.88;;;10.64;72.94
75013;BME280;63567;49.956;20.130;2024-03-23T05:56:59;96145.16;;;10.68;72.94
75013;BME280;63567;49.956;20.130;2024-03-23T05:59:24;96145.97;;;10.68;73.29
75013;BME280;63567;49.956;20.130;2024-03-23T06:01:50;96145.75;;;10.70;73.51
75013;BME280;63567;49.956;20.130;2024-03-23T06:04:15;96147.38;;;10.71;73.62
75013;BME280;63567;49.956;20.130;2024-03-23T06:06:40;96141.91;;;10.73;73.40
75013;BME280;63567;49.956;20.130;2024-03-23T06:09:05;96140.06;;;10.73;73.61
75013;BME280;63567;49.956;20.130;2024-03-23T06:11:31;96142.50;;;10.75;73.19
75013;BME280;63567;49.956;20.130;2024-03-23T06:13:56;96142.28;;;10.76;73.56
75013;BME280;63567;49.956;20.130;2024-03-23T06:16:21;96148.97;;;10.79;73.41
75013;BME280;63567;49.956;20.130;2024-03-23T06:18:50;96143.50;;;10.80;73.32
75013;BME280;63567;49.956;20.130;2024-03-23T06:21:15;96145.69;;;10.83;73.55
75013;BME280;63567;49.956;20.130;2024-03-23T06:23:42;96143.66;;;10.85;73.29
75013;BME280;63567;49.956;20.130;2024-03-23T06:26:07;96144.03;;;10.89;73.36
75013;BME280;63567;49.956;20.130;2024-03-23T06:28:33;96136.75;;;10.91;73.47
75013;BME280;63567;49.956;20.130;2024-03-23T06:30:58;96130.03;;;10.95;73.32
75013;BME280;63567;49.956;20.130;2024-03-23T06:33:24;96117.22;;;10.99;73.10
75013;BME280;63567;49.956;20.130;2024-03-23T06:35:52;96113.34;;;11.01;73.60
75013;BME280;63567;49.956;20.130;2024-03-23T06:38:18;96115.13;;;11.07;73.27
75013;BME280;63567;49.956;20.130;2024-03-23T06:40:43;96113.47;;;11.13;73.62
75013;BME280;63567;49.956;20.130;2024-03-23T06:43:13;96117.88;;;11.19;73.66
75013;BME280;63567;49.956;20.130;2024-03-23T06:45:38;96117.84;;;11.26;73.77
75013;BME280;63567;49.956;20.130;2024-03-23T06:48:04;96122.47;;;11.30;73.70
75013;BME280;63567;49.956;20.130;2024-03-23T06:50:29;96121.59;;;11.37;73.45
75013;BME280;63567;49.956;20.130;2024-03-23T06:52:54;96118.09;;;11.43;73.36
75013;BME280;63567;49.956;20.130;2024-03-23T06:55:20;96120.91;;;11.48;73.69
75013;BME280;63567;49.956;20.130;2024-03-23T06:57:45;96125.50;;;11.52;73.44
75013;BME280;63567;49.956;20.130;2024-03-23T07:00:11;96115.56;;;11.55;73.40
75013;BME280;63567;49.956;20.130;2024-03-23T07:02:37;96112.06;;;11.61;73.44
75013;BME280;63567;49.956;20.130;2024-03-23T07:05:03;96115.88;;;11.65;73.57
75013;BME280;63567;49.956;20.130;2024-03-23T07:07:28;96118.88;;;11.68;73.55
75013;BME280;63567;49.956;20.130;2024-03-23T07:09:55;96108.69;;;11.72;73.37
75013;BME280;63567;49.956;20.130;2024-03-23T07:12:20;96117.19;;;11.74;73.32
75013;BME280;63567;49.956;20.130;2024-03-23T07:14:46;96125.06;;;11.81;73.39
75013;BME280;63567;49.956;20.130;2024-03-23T07:17:11;96124.19;;;11.87;73.31
75013;BME280;63567;49.956;20.130;2024-03-23T07:19:36;96127.19;;;11.90;73.16
75013;BME280;63567;49.956;20.130;2024-03-23T07:22:01;96122.88;;;11.96;73.25
75013;BME280;63567;49.956;20.130;2024-03-23T07:24:27;96110.88;;;12.00;73.39
75013;BME280;63567;49.956;20.130;2024-03-23T07:26:52;96108.16;;;12.07;73.06
75013;BME280;63567;49.956;20.130;2024-03-23T07:29:19;96106.47;;;12.12;73.41
75013;BME280;63567;49.956;20.130;2024-03-23T07:31:44;96098.91;;;12.16;73.20
75013;BME280;63567;49.956;20.130;2024-03-23T07:34:09;96113.66;;;12.24;73.45
75013;BME280;63567;49.956;20.130;2024-03-23T07:36:35;96116.44;;;12.29;73.33
75013;BME280;63567;49.956;20.130;2024-03-23T07:39:00;96112.91;;;12.35;73.28
75013;BME280;63567;49.956;20.130;2024-03-23T07:41:25;96110.19;;;12.42;73.42
75013;BME280;63567;49.956;20.130;2024-03-23T07:43:53;96104.00;;;12.48;73.32
75013;BME280;63567;49.956;20.130;2024-03-23T07:46:20;96113.47;;;12.56;73.17
75013;BME280;63567;49.956;20.130;2024-03-23T07:48:45;96106.25;;;12.63;73.10
75013;BME280;63567;49.956;20.130;2024-03-23T07:51:17;96092.94;;;12.69;72.86
75013;BME280;63567;49.956;20.130;2024-03-23T07:53:43;96088.94;;;12.79;72.63
75013;BME280;63567;49.956;20.130;2024-03-23T07:56:09;96088.06;;;12.85;72.16
75013;BME280;63567;49.956;20.130;2024-03-23T07:58:35;96082.09;;;12.89;71.86
75013;BME280;63567;49.956;20.130;2024-03-23T08:01:11;96079.91;;;12.98;71.61
75013;BME280;63567;49.956;20.130;2024-03-23T08:03:38;96081.66;;;13.04;71.22
75013;BME280;63567;49.956;20.130;2024-03-23T08:08:38;96073.72;;;13.16;70.80
75013;BME280;63567;49.956;20.130;2024-03-23T08:11:03;96058.44;;;13.18;70.60
75013;BME280;63567;49.956;20.130;2024-03-23T08:13:29;96060.53;;;13.28;70.92
75013;BME280;63567;49.956;20.130;2024-03-23T08:16:02;96057.81;;;13.34;70.66
75013;BME280;63567;49.956;20.130;2024-03-23T08:18:28;96043.41;;;13.42;70.67
75013;BME280;63567;49.956;20.130;2024-03-23T08:21:01;96043.88;;;13.51;70.82
75013;BME280;63567;49.956;20.130;2024-03-23T08:23:30;96039.03;;;13.60;70.85
75013;BME280;63567;49.956;20.130;2024-03-23T08:26:02;96038.69;;;13.68;70.59
75013;BME280;63567;49.956;20.130;2024-03-23T08:28:28;96035.22;;;13.79;70.54
75013;BME280;63567;49.956;20.130;2024-03-23T08:30:54;96030.13;;;13.89;70.24
75013;BME280;63567;49.956;20.130;2024-03-23T08:33:20;96020.53;;;14.00;69.96
75013;BME280;63567;49.956;20.130;2024-03-23T08:35:56;96023.41;;;14.10;69.49
75013;BME280;63567;49.956;20.130;2024-03-23T08:38:22;96012.44;;;14.18;68.71
75013;BME280;63567;49.956;20.130;2024-03-23T08:40:48;96018.75;;;14.29;68.79
75013;BME280;63567;49.956;20.130;2024-03-23T08:43:13;96015.69;;;14.37;68.25
75013;BME280;63567;49.956;20.130;2024-03-23T08:45:38;96001.31;;;14.33;68.28
75013;BME280;63567;49.956;20.130;2024-03-23T08:48:04;96014.72;;;14.55;68.02
75013;BME280;63567;49.956;20.130;2024-03-23T08:50:29;96015.94;;;14.65;68.23
75013;BME280;63567;49.956;20.130;2024-03-23T08:52:54;96008.41;;;14.73;68.61
75013;BME280;63567;49.956;20.130;2024-03-23T08:55:20;96013.06;;;14.83;68.52
75013;BME280;63567;49.956;20.130;2024-03-23T08:57:45;96006.06;;;14.94;67.93
75013;BME280;63567;49.956;20.130;2024-03-23T09:00:11;96003.81;;;15.03;67.59
75013;BME280;63567;49.956;20.130;2024-03-23T09:02:36;95994.16;;;15.13;67.08
75013;BME280;63567;49.956;20.130;2024-03-23T09:05:02;95987.97;;;15.25;67.36
75013;BME280;63567;49.956;20.130;2024-03-23T09:07:30;95985.53;;;15.40;67.09
75013;BME280;63567;49.956;20.130;2024-03-23T09:09:55;95977.22;;;15.53;66.03
75013;BME280;63567;49.956;20.130;2024-03-23T09:12:21;95972.03;;;15.64;65.50
75013;BME280;63567;49.956;20.130;2024-03-23T09:14:46;95977.25;;;15.75;65.18
75013;BME280;63567;49.956;20.130;2024-03-23T09:17:11;95968.84;;;15.84;65.08
75013;BME280;63567;49.956;20.130;2024-03-23T09:19:36;95970.03;;;15.93;64.86
75013;BME280;63567;49.956;20.130;2024-03-23T09:22:02;95969.03;;;15.99;64.36
75013;BME280;63567;49.956;20.130;2024-03-23T09:24:27;95966.66;;;16.02;64.48
75013;BME280;63567;49.956;20.130;2024-03-23T09:26:52;95961.09;;;16.04;64.18
75013;BME280;63567;49.956;20.130;2024-03-23T09:29:17;95954.75;;;16.05;63.48
75013;BME280;63567;49.956;20.130;2024-03-23T09:31:43;95950.19;;;16.00;63.55
75013;BME280;63567;49.956;20.130;2024-03-23T09:34:08;95959.25;;;16.05;62.98
75013;BME280;63567;49.956;20.130;2024-03-23T09:36:33;95943.81;;;16.01;62.50
75013;BME280;63567;49.956;20.130;2024-03-23T09:38:59;95937.72;;;16.01;62.77
75013;BME280;63567;49.956;20.130;2024-03-23T09:41:24;95938.50;;;16.01;62.55
75013;BME280;63567;49.956;20.130;2024-03-23T09:43:52;95930.53;;;16.01;62.64
75013;BME280;63567;49.956;20.130;2024-03-23T09:46:18;95931.88;;;16.04;62.54
75013;BME280;63567;49.956;20.130;2024-03-23T09:48:46;95921.81;;;16.06;62.33
75013;BME280;63567;49.956;20.130;2024-03-23T09:51:11;95914.38;;;16.08;62.77
75013;BME280;63567;49.956;20.130;2024-03-23T09:53:37;95909.13;;;16.13;62.13
75013;BME280;63567;49.956;20.130;2024-03-23T09:56:02;95898.56;;;16.18;62.28
75013;BME280;63567;49.956;20.130;2024-03-23T09:58:28;95897.56;;;16.25;61.88
75013;BME280;63567;49.956;20.130;2024-03-23T10:00:53;95892.03;;;16.31;62.01
75013;BME280;63567;49.956;20.130;2024-03-23T10:03:18;95885.94;;;16.36;61.25
75013;BME280;63567;49.956;20.130;2024-03-23T10:05:43;95887.06;;;16.45;61.08
75013;BME280;63567;49.956;20.130;2024-03-23T10:08:17;95891.38;;;16.51;61.13
75013;BME280;63567;49.956;20.130;2024-03-23T10:10:43;95885.84;;;16.58;60.90
75013;BME280;63567;49.956;20.130;2024-03-23T10:13:08;95883.75;;;16.60;60.80
75013;BME280;63567;49.956;20.130;2024-03-23T10:15:35;95872.03;;;16.61;61.13
75013;BME280;63567;49.956;20.130;2024-03-23T10:18:20;95859.28;;;16.63;60.37
75013;BME280;63567;49.956;20.130;2024-03-23T10:23:30;95863.88;;;16.68;60.12
75013;BME280;63567;49.956;20.130;2024-03-23T10:26:12;95862.28;;;16.72;59.72
75013;BME280;63567;49.956;20.130;2024-03-23T10:28:59;95853.00;;;16.74;59.62
75013;BME280;63567;49.956;20.130;2024-03-23T10:31:33;95842.63;;;16.78;59.81
75013;BME280;63567;49.956;20.130;2024-03-23T10:33:58;95837.06;;;16.79;59.60
75013;BME280;63567;49.956;20.130;2024-03-23T10:36:26;95829.97;;;16.90;59.53
75013;BME280;63567;49.956;20.130;2024-03-23T10:38:52;95831.88;;;17.00;59.17
75013;BME280;63567;49.956;20.130;2024-03-23T10:41:18;95807.44;;;17.08;59.33
75013;BME280;63567;49.956;20.130;2024-03-23T10:43:48;95810.69;;;17.20;59.75
75013;BME280;63567;49.956;20.130;2024-03-23T10:46:13;95815.22;;;17.25;59.36
75013;BME280;63567;49.956;20.130;2024-03-23T10:48:39;95809.41;;;17.38;58.65
75013;BME280;63567;49.956;20.130;2024-03-23T10:51:07;95803.88;;;17.50;58.72
75013;BME280;63567;49.956;20.130;2024-03-23T10:53:33;95796.97;;;17.59;58.53
75013;BME280;63567;49.956;20.130;2024-03-23T10:55:59;95795.38;;;17.79;58.13
75013;BME280;63567;49.956;20.130;2024-03-23T10:58:46;95790.63;;;18.01;58.27
75013;BME280;63567;49.956;20.130;2024-03-23T11:01:13;95782.88;;;18.25;58.06
75013;BME280;63567;49.956;20.130;2024-03-23T11:03:40;95773.28;;;18.50;56.51
75013;BME280;63567;49.956;20.130;2024-03-23T11:06:09;95775.38;;;18.74;55.07
75013;BME280;63567;49.956;20.130;2024-03-23T11:08:39;95759.03;;;18.96;54.72
75013;BME280;63567;49.956;20.130;2024-03-23T11:11:27;95757.00;;;19.27;54.57
75013;BME280;63567;49.956;20.130;2024-03-23T11:13:53;95741.63;;;19.53;53.72
75013;BME280;63567;49.956;20.130;2024-03-23T11:16:23;95729.75;;;19.75;52.17
75013;BME280;63567;49.956;20.130;2024-03-23T11:18:49;95732.78;;;19.97;51.76
75013;BME280;63567;49.956;20.130;2024-03-23T11:22:07;95709.00;;;20.25;51.29
75013;BME280;63567;49.956;20.130;2024-03-23T11:24:25;95709.28;;;20.52;50.52
75013;BME280;63567;49.956;20.130;2024-03-23T11:26:50;95709.47;;;20.85;50.04
75013;BME280;63567;49.956;20.130;2024-03-23T11:29:16;95709.56;;;21.18;49.53
75013;BME280;63567;49.956;20.130;2024-03-23T11:31:53;95702.72;;;21.50;49.67
75013;BME280;63567;49.956;20.130;2024-03-23T11:34:19;95701.19;;;21.82;49.58
75013;BME280;63567;49.956;20.130;2024-03-23T11:36:44;95690.72;;;22.13;49.22
75013;BME280;63567;49.956;20.130;2024-03-23T11:39:20;95688.78;;;22.46;48.60
75013;BME280;63567;49.956;20.130;2024-03-23T11:41:47;95684.81;;;22.71;47.70
75013;BME280;63567;49.956;20.130;2024-03-23T11:44:19;95682.13;;;22.99;46.46
75013;BME280;63567;49.956;20.130;2024-03-23T11:46:46;95676.03;;;23.21;45.74
75013;BME280;63567;49.956;20.130;2024-03-23T11:49:27;95666.09;;;23.44;45.19
75013;BME280;63567;49.956;20.130;2024-03-23T11:51:54;95663.84;;;23.60;45.43
75013;BME280;63567;49.956;20.130;2024-03-23T11:54:24;95661.31;;;23.77;44.78
75013;BME280;63567;49.956;20.130;2024-03-23T11:57:00;95677.38;;;23.91;44.64
75013;BME280;63567;49.956;20.130;2024-03-23T12:01:57;95652.22;;;23.96;44.05
75013;BME280;63567;49.956;20.130;2024-03-23T12:04:29;95643.66;;;23.94;43.82
75013;BME280;63567;49.956;20.130;2024-03-23T12:07:17;95647.28;;;23.89;43.56
75013;BME280;63567;49.956;20.130;2024-03-23T12:09:44;95636.19;;;23.82;43.59
75013;BME280;63567;49.956;20.130;2024-03-23T12:12:15;95624.22;;;23.74;43.30
75013;BME280;63567;49.956;20.130;2024-03-23T12:14:44;95637.63;;;23.66;43.44
75013;BME280;63567;49.956;20.130;2024-03-23T12:17:10;95612.09;;;23.54;43.03
75013;BME280;63567;49.956;20.130;2024-03-23T12:19:36;95593.50;;;23.44;43.85
75013;BME280;63567;49.956;20.130;2024-03-23T12:22:03;95593.94;;;23.37;43.59
75013;BME280;63567;49.956;20.130;2024-03-23T12:24:29;95583.94;;;23.29;44.13
75013;BME280;63567;49.956;20.130;2024-03-23T12:26:54;95578.50;;;23.21;43.91
75013;BME280;63567;49.956;20.130;2024-03-23T12:29:20;95583.00;;;23.11;44.05
75013;BME280;63567;49.956;20.130;2024-03-23T12:31:45;95569.00;;;23.01;44.19
75013;BME280;63567;49.956;20.130;2024-03-23T12:34:10;95561.19;;;22.90;44.21
75013;BME280;63567;49.956;20.130;2024-03-23T12:36:36;95558.72;;;22.80;44.70
75013;BME280;63567;49.956;20.130;2024-03-23T12:39:01;95554.25;;;22.75;45.29
75013;BME280;63567;49.956;20.130;2024-03-23T12:41:26;95558.75;;;22.66;44.88
75013;BME280;63567;49.956;20.130;2024-03-23T12:43:51;95549.31;;;22.55;44.98
75013;BME280;63567;49.956;20.130;2024-03-23T12:46:17;95536.72;;;22.42;45.74
75013;BME280;63567;49.956;20.130;2024-03-23T12:48:44;95535.06;;;22.32;45.69
75013;BME280;63567;49.956;20.130;2024-03-23T12:51:09;95534.44;;;22.21;45.88
75013;BME280;63567;49.956;20.130;2024-03-23T12:53:35;95527.09;;;22.13;45.06
75013;BME280;63567;49.956;20.130;2024-03-23T12:56:00;95516.06;;;22.01;45.41
75013;BME280;63567;49.956;20.130;2024-03-23T12:58:25;95516.84;;;21.87;45.58
75013;BME280;63567;49.956;20.130;2024-03-23T13:00:50;95515.47;;;21.76;46.10
75013;BME280;63567;49.956;20.130;2024-03-23T13:03:16;95501.75;;;21.64;46.19
75013;BME280;63567;49.956;20.130;2024-03-23T13:05:41;95501.47;;;21.51;45.97
75013;BME280;63567;49.956;20.130;2024-03-23T13:08:06;95486.69;;;21.35;46.22
75013;BME280;63567;49.956;20.130;2024-03-23T13:10:32;95483.41;;;21.24;45.98
75013;BME280;63567;49.956;20.130;2024-03-23T13:12:57;95485.19;;;21.15;45.95
75013;BME280;63567;49.956;20.130;2024-03-23T13:15:23;95470.88;;;21.06;46.63
75013;BME280;63567;49.956;20.130;2024-03-23T13:17:48;95465.31;;;21.02;46.65
75013;BME280;63567;49.956;20.130;2024-03-23T13:20:13;95464.81;;;21.00;47.02
75013;BME280;63567;49.956;20.130;2024-03-23T13:22:40;95456.00;;;21.00;46.45
75013;BME280;63567;49.956;20.130;2024-03-23T13:25:05;95438.16;;;21.09;46.58
75013;BME280;63567;49.956;20.130;2024-03-23T13:27:31;95432.03;;;21.22;46.64
75013;BME280;63567;49.956;20.130;2024-03-23T13:29:56;95445.38;;;21.41;46.10
75013;BME280;63567;49.956;20.130;2024-03-23T13:32:21;95442.22;;;21.67;46.25
75013;BME280;63567;49.956;20.130;2024-03-23T13:34:47;95442.66;;;21.97;46.50
75013;BME280;63567;49.956;20.130;2024-03-23T13:37:15;95423.28;;;22.27;46.13
75013;BME280;63567;49.956;20.130;2024-03-23T13:39:40;95413.41;;;22.59;45.59
75013;BME280;63567;49.956;20.130;2024-03-23T13:42:07;95405.06;;;22.92;44.83
75013;BME280;63567;49.956;20.130;2024-03-23T13:44:34;95399.75;;;23.23;44.17
75013;BME280;63567;49.956;20.130;2024-03-23T13:46:59;95399.22;;;23.52;43.72
75013;BME280;63567;49.956;20.130;2024-03-23T13:49:29;95398.38;;;23.83;43.15